createdAt,value
2022-10-27T00:01:08.643Z,15.17
2022-10-27T00:03:36.640Z,15.47
2022-10-27T00:06:08.136Z,15.93
2022-10-27T00:08:37.493Z,15.07
2022-10-27T00:11:08.181Z,15.10
2022-10-27T00:13:37.841Z,15.60
2022-10-27T00:16:10.905Z,14.47
2022-10-27T00:18:39.064Z,16.03
2022-10-27T00:21:10.539Z,14.70
2022-10-27T00:23:39.744Z,11.87
2022-10-27T00:26:11.102Z,11.80
2022-10-27T00:28:39.806Z,11.30
2022-10-27T00:31:14.305Z,13.80
2022-10-27T00:33:43.327Z,14.50
2022-10-27T00:36:14.391Z,14.67
2022-10-27T00:38:42.734Z,13.33
2022-10-27T00:41:26.609Z,11.63
2022-10-27T00:43:55.630Z,11.73
2022-10-27T00:46:41.090Z,10.57
2022-10-27T00:49:12.703Z,9.50
2022-10-27T00:51:44.831Z,10.35
2022-10-27T00:54:14.497Z,10.10
2022-10-27T00:56:43.884Z,10.43
2022-10-27T00:59:12.269Z,10.60
2022-10-27T01:01:43.375Z,11.37
2022-10-27T01:04:13.119Z,16.93
2022-10-27T01:06:41.085Z,16.83
2022-10-27T01:09:10.475Z,16.63
2022-10-27T01:11:38.895Z,14.30
2022-10-27T01:14:07.257Z,13.60
2022-10-27T01:16:43.205Z,13.73
2022-10-27T01:19:41.068Z,12.37
2022-10-27T01:22:21.691Z,13.00
2022-10-27T01:25:12.892Z,12.30
2022-10-27T01:28:09.666Z,13.90
2022-10-27T01:30:57.140Z,11.55
2022-10-27T01:33:35.212Z,11.50
2022-10-27T01:36:10.381Z,10.50
2022-10-27T01:38:49.273Z,10.97
2022-10-27T01:41:25.430Z,11.57
2022-10-27T01:43:59.940Z,11.57
2022-10-27T01:46:29.926Z,12.07
2022-10-27T01:48:58.772Z,11.87
2022-10-27T01:51:26.844Z,11.63
2022-10-27T01:53:56.022Z,11.47
2022-10-27T01:56:52.277Z,10.80
2022-10-27T01:59:39.685Z,10.30
2022-10-27T02:02:23.119Z,10.00
2022-10-27T02:05:05.076Z,11.30
2022-10-27T02:07:45.390Z,12.90
2022-10-27T02:10:20.754Z,12.60
2022-10-27T02:12:50.682Z,15.48
2022-10-27T02:15:32.148Z,13.87
2022-10-27T02:18:06.424Z,14.50
2022-10-27T02:20:41.763Z,16.23
2022-10-27T02:23:16.718Z,13.87
2022-10-27T02:25:53.343Z,13.33
2022-10-27T02:28:27.561Z,13.73
2022-10-27T02:31:00.893Z,12.80
2022-10-27T02:33:30.511Z,13.30
2022-10-27T02:35:59.257Z,13.50
2022-10-27T02:38:27.259Z,13.07
2022-10-27T02:40:55.427Z,13.33
2022-10-27T02:43:23.356Z,12.87
2022-10-27T02:45:51.333Z,10.85
2022-10-27T02:48:19.260Z,11.50
2022-10-27T02:50:48.561Z,12.93
2022-10-27T02:53:16.578Z,12.33
2022-10-27T02:55:44.569Z,12.50
2022-10-27T02:58:12.629Z,12.53
2022-10-27T03:00:40.750Z,12.47
2022-10-27T03:03:08.787Z,17.27
2022-10-27T03:05:36.974Z,24.93
2022-10-27T03:08:07.098Z,25.63
2022-10-27T03:10:35.158Z,19.33
2022-10-27T03:13:03.177Z,19.97
2022-10-27T03:15:31.173Z,16.63
2022-10-27T03:17:59.163Z,13.27
2022-10-27T03:20:27.161Z,12.37
2022-10-27T03:22:55.361Z,11.57
2022-10-27T03:25:24.765Z,9.70
2022-10-27T03:27:52.761Z,9.17
2022-10-27T03:30:20.778Z,9.67
2022-10-27T03:32:51.572Z,10.13
2022-10-27T03:35:21.496Z,9.53
2022-10-27T03:37:56.911Z,9.90
2022-10-27T03:40:26.703Z,11.53
2022-10-27T03:42:58.509Z,11.50
2022-10-27T03:45:27.281Z,11.93
2022-10-27T03:48:02.657Z,12.57
2022-10-27T03:50:30.783Z,15.50
2022-10-27T03:52:59.030Z,14.40
2022-10-27T03:55:28.379Z,13.70
2022-10-27T03:57:56.798Z,12.00
2022-10-27T04:00:25.073Z,15.37
2022-10-27T04:02:55.645Z,15.80
2022-10-27T04:05:24.464Z,15.67
2022-10-27T04:07:52.639Z,15.83
2022-10-27T04:10:20.645Z,13.27
2022-10-27T04:12:55.254Z,15.33
2022-10-27T04:15:25.502Z,15.47
2022-10-27T04:17:55.106Z,14.90
2022-10-27T04:20:23.908Z,13.60
2022-10-27T04:22:52.284Z,13.00
2022-10-27T04:25:20.475Z,14.13
2022-10-27T04:27:48.627Z,14.53
2022-10-27T04:30:18.745Z,13.10
2022-10-27T04:32:46.719Z,11.83
2022-10-27T04:35:14.678Z,11.60
2022-10-27T04:37:42.643Z,12.20
2022-10-27T04:40:12.226Z,10.90
2022-10-27T04:42:46.638Z,10.87
2022-10-27T04:45:15.520Z,11.30
2022-10-27T04:47:45.631Z,11.60
2022-10-27T04:50:14.031Z,12.57
2022-10-27T04:52:44.380Z,13.60
2022-10-27T04:55:12.803Z,13.50
2022-10-27T04:57:40.807Z,13.30
2022-10-27T05:00:11.400Z,11.17
2022-10-27T05:02:39.392Z,10.57
2022-10-27T05:05:09.974Z,10.93
2022-10-27T05:07:37.930Z,10.03
2022-10-27T05:10:07.090Z,10.70
2022-10-27T05:12:35.078Z,10.07
2022-10-27T05:15:03.118Z,10.30
2022-10-27T05:17:31.164Z,11.70
2022-10-27T05:19:59.123Z,10.63
2022-10-27T05:22:28.412Z,10.83
2022-10-27T05:24:56.359Z,11.67
2022-10-27T05:27:24.322Z,10.13
2022-10-27T05:29:52.317Z,10.17
2022-10-27T05:32:20.313Z,10.67
2022-10-27T05:34:48.329Z,10.20
2022-10-27T05:37:16.394Z,10.20
2022-10-27T05:39:45.706Z,9.73
2022-10-27T05:42:13.769Z,9.47
2022-10-27T05:44:41.806Z,10.63
2022-10-27T05:47:10.189Z,10.93
2022-10-27T05:49:38.185Z,11.97
2022-10-27T05:52:06.381Z,10.13
2022-10-27T05:54:34.355Z,11.03
2022-10-27T05:57:04.073Z,10.50
2022-10-27T05:59:32.031Z,10.73
2022-10-27T06:02:00.100Z,10.17
2022-10-27T06:04:28.196Z,10.53
2022-10-27T06:06:56.199Z,10.53
2022-10-27T06:09:24.156Z,10.07
2022-10-27T06:11:52.123Z,11.00
2022-10-27T06:14:21.903Z,10.73
2022-10-27T06:16:51.622Z,10.63
2022-10-27T06:19:19.559Z,10.00
2022-10-27T06:21:47.950Z,10.30
2022-10-27T06:24:15.945Z,10.60
2022-10-27T06:26:43.921Z,10.23
2022-10-27T06:29:11.874Z,11.37
2022-10-27T06:31:42.774Z,10.80
2022-10-27T06:34:10.755Z,11.50
2022-10-27T06:36:38.730Z,11.57
2022-10-27T06:39:06.671Z,11.53
2022-10-27T06:41:34.605Z,11.13
2022-10-27T06:44:02.768Z,11.30
2022-10-27T06:46:30.730Z,12.80
2022-10-27T06:49:00.749Z,12.93
2022-10-27T06:51:28.808Z,13.67
2022-10-27T06:53:56.798Z,12.93
2022-10-27T06:56:24.892Z,12.87
2022-10-27T06:58:54.152Z,12.37
2022-10-27T07:01:22.538Z,12.80
2022-10-27T07:03:52.120Z,12.90
2022-10-27T07:06:21.518Z,12.90
2022-10-27T07:08:49.990Z,13.10
2022-10-27T07:11:18.002Z,12.13
2022-10-27T07:13:45.973Z,11.83
2022-10-27T07:16:14.019Z,11.37
2022-10-27T07:18:43.273Z,11.60
2022-10-27T07:21:11.263Z,11.30
2022-10-27T07:23:40.546Z,10.13
2022-10-27T07:26:08.560Z,12.30
2022-10-27T07:28:36.908Z,11.63
2022-10-27T07:31:05.023Z,10.32
2022-10-27T07:33:33.137Z,10.82
2022-10-27T07:36:01.095Z,10.18
2022-10-27T07:38:29.052Z,11.57
2022-10-27T07:40:58.996Z,8.73
2022-10-27T07:43:26.998Z,11.10
2022-10-27T07:45:55.089Z,9.05
2022-10-27T07:48:23.121Z,9.10
2022-10-27T07:50:52.061Z,9.32
2022-10-27T07:53:20.109Z,9.00
2022-10-27T07:55:48.199Z,9.10
2022-10-27T07:58:18.738Z,8.00
2022-10-27T08:00:48.889Z,9.23
2022-10-27T08:03:19.935Z,8.70
2022-10-27T08:05:49.034Z,8.40
2022-10-27T08:08:17.875Z,8.70
2022-10-27T08:10:48.980Z,7.90
2022-10-27T08:13:19.170Z,8.27
2022-10-27T08:15:48.021Z,7.35
2022-10-27T08:18:16.134Z,7.28
2022-10-27T08:20:46.239Z,7.30
2022-10-27T08:23:16.783Z,7.07
2022-10-27T08:25:45.728Z,7.63
2022-10-27T08:28:15.770Z,7.10
2022-10-27T08:30:52.341Z,6.13
2022-10-27T08:33:21.686Z,5.80
2022-10-27T08:35:51.405Z,6.95
2022-10-27T08:38:20.598Z,6.63
2022-10-27T08:41:04.139Z,7.15
2022-10-27T08:44:11.488Z,7.10
2022-10-27T08:46:48.169Z,6.25
2022-10-27T08:49:43.475Z,6.97
2022-10-27T08:52:25.225Z,6.85
2022-10-27T08:55:00.935Z,6.38
2022-10-27T09:00:13.289Z,6.03
2022-10-27T09:03:06.380Z,6.20
2022-10-27T09:08:42.813Z,7.22
2022-10-27T09:11:27.041Z,7.90
2022-10-27T09:14:23.632Z,6.75
2022-10-27T09:16:58.661Z,6.30
2022-10-27T09:19:33.979Z,5.90
2022-10-27T09:22:07.809Z,5.57
2022-10-27T09:24:39.337Z,5.70
2022-10-27T09:27:10.093Z,5.10
2022-10-27T09:29:40.235Z,5.05
2022-10-27T09:32:19.504Z,4.90
2022-10-27T09:35:01.183Z,5.28
2022-10-27T09:37:32.462Z,5.32
2022-10-27T09:40:00.698Z,6.22
2022-10-27T09:42:30.522Z,6.90
2022-10-27T09:45:03.147Z,5.60
2022-10-27T09:47:39.754Z,4.32
2022-10-27T09:50:22.872Z,4.78
2022-10-27T09:52:51.908Z,4.88
2022-10-27T09:55:22.604Z,5.05
2022-10-27T09:57:51.615Z,4.47
2022-10-27T10:00:30.828Z,4.60
2022-10-27T10:03:06.015Z,4.47
2022-10-27T10:05:37.921Z,3.72
2022-10-27T10:08:23.595Z,4.13
2022-10-27T10:10:58.254Z,3.80
2022-10-27T10:13:27.468Z,3.47
2022-10-27T10:16:12.269Z,3.35
2022-10-27T10:18:42.103Z,3.10
2022-10-27T10:21:14.029Z,3.65
2022-10-27T10:23:51.685Z,3.67
2022-10-27T10:26:23.339Z,3.42
2022-10-27T10:28:55.378Z,3.05
2022-10-27T10:31:27.159Z,3.20
2022-10-27T10:34:03.710Z,3.33
2022-10-27T10:36:37.769Z,3.25
2022-10-27T10:39:25.011Z,3.17
2022-10-27T10:42:16.610Z,2.50
2022-10-27T10:44:48.077Z,2.47
2022-10-27T10:47:27.207Z,2.50
2022-10-27T10:50:00.497Z,2.38
2022-10-27T10:52:37.920Z,2.50
2022-10-27T10:55:09.163Z,2.58
2022-10-27T10:57:42.118Z,2.70
2022-10-27T11:00:18.709Z,2.35
2022-10-27T11:02:59.099Z,2.45
2022-10-27T11:05:32.937Z,2.60
2022-10-27T11:08:04.269Z,2.45
2022-10-27T11:10:36.871Z,2.72
2022-10-27T11:13:16.428Z,2.88
2022-10-27T11:15:52.139Z,2.72
2022-10-27T11:18:26.964Z,2.40
2022-10-27T11:21:03.445Z,2.40
2022-10-27T11:23:44.753Z,3.00
2022-10-27T11:26:15.423Z,2.28
2022-10-27T11:28:56.026Z,2.42
2022-10-27T11:31:33.843Z,2.78
2022-10-27T11:34:13.750Z,2.60
2022-10-27T11:36:48.879Z,2.72
2022-10-27T11:39:26.453Z,2.25
2022-10-27T11:42:11.033Z,2.78
2022-10-27T11:44:54.015Z,2.70
2022-10-27T11:47:33.356Z,2.20
2022-10-27T11:50:07.138Z,2.67
2022-10-27T11:52:42.906Z,2.42
2022-10-27T11:55:17.038Z,2.53
2022-10-27T11:57:56.361Z,2.85
2022-10-27T12:00:27.478Z,2.88
2022-10-27T12:03:46.762Z,2.92
2022-10-27T12:06:30.124Z,3.03
2022-10-27T12:09:16.890Z,3.22
2022-10-27T12:12:02.346Z,3.42
2022-10-27T12:14:39.670Z,3.45
2022-10-27T12:17:18.208Z,3.38
2022-10-27T12:19:49.092Z,3.42
2022-10-27T12:22:25.768Z,3.22
2022-10-27T12:25:04.113Z,3.47
2022-10-27T12:27:38.734Z,3.33
2022-10-27T12:30:15.352Z,3.00
2022-10-27T12:32:54.709Z,2.95
2022-10-27T12:35:34.053Z,2.90
2022-10-27T12:38:17.447Z,3.22
2022-10-27T12:40:54.926Z,2.83
2022-10-27T12:43:37.759Z,2.70
2022-10-27T12:46:26.273Z,2.72
2022-10-27T12:49:12.906Z,3.80
2022-10-27T12:51:56.135Z,2.90
2022-10-27T12:54:48.380Z,3.20
2022-10-27T12:57:36.958Z,2.42
2022-10-27T13:00:13.715Z,2.80
2022-10-27T13:02:58.595Z,2.28
2022-10-27T13:06:06.504Z,2.67
2022-10-27T13:09:39.320Z,2.50
2022-10-27T13:12:43.838Z,2.13
2022-10-27T13:15:49.379Z,1.95
2022-10-27T13:18:36.007Z,2.38
2022-10-27T13:21:16.002Z,2.05
2022-10-27T13:24:00.426Z,1.90
2022-10-27T13:26:36.826Z,1.50
2022-10-27T13:29:17.922Z,1.60
2022-10-27T13:32:39.959Z,1.33
2022-10-27T13:35:34.557Z,1.40
2022-10-27T13:38:27.885Z,1.20
2022-10-27T13:40:57.995Z,1.50
2022-10-27T13:43:49.028Z,1.50
2022-10-27T13:46:19.384Z,1.50
2022-10-27T13:48:50.186Z,1.52
2022-10-27T13:51:55.190Z,1.20
2022-10-27T13:54:55.284Z,1.55
2022-10-27T13:58:00.787Z,1.33
2022-10-27T14:01:19.548Z,1.30
2022-10-27T14:04:14.980Z,1.40
2022-10-27T14:06:45.579Z,1.40
2022-10-27T14:09:31.663Z,1.20
2022-10-27T14:12:06.751Z,1.23
2022-10-27T14:14:40.319Z,1.23
2022-10-27T14:17:17.716Z,1.60
2022-10-27T14:20:00.817Z,1.73
2022-10-27T14:22:37.331Z,1.55
2022-10-27T14:25:17.482Z,1.33
2022-10-27T14:27:45.973Z,1.40
2022-10-27T14:30:21.662Z,1.83
2022-10-27T14:32:50.206Z,1.80
2022-10-27T14:35:26.487Z,1.75
2022-10-27T14:37:58.103Z,1.40
2022-10-27T14:40:37.484Z,1.30
2022-10-27T14:43:16.383Z,1.25
2022-10-27T14:45:46.312Z,1.30
2022-10-27T14:48:27.432Z,1.33
2022-10-27T14:50:59.803Z,1.60
2022-10-27T14:53:34.435Z,1.58
2022-10-27T14:56:16.994Z,1.50
2022-10-27T14:58:53.646Z,1.10
2022-10-27T15:01:34.550Z,1.50
2022-10-27T15:04:17.119Z,1.33
2022-10-27T15:06:48.184Z,1.38
2022-10-27T15:09:33.047Z,1.63
2022-10-27T15:12:05.031Z,1.33
2022-10-27T15:14:35.750Z,1.63
2022-10-27T15:17:03.733Z,2.00
2022-10-27T15:19:31.738Z,1.85
2022-10-27T15:22:02.404Z,1.75
2022-10-27T15:24:30.506Z,1.70
2022-10-27T15:26:59.037Z,1.55
2022-10-27T15:29:27.081Z,1.30
2022-10-27T15:32:01.663Z,1.60
2022-10-27T15:34:34.159Z,1.52
2022-10-27T15:37:33.615Z,1.60
2022-10-27T15:40:33.238Z,1.70
2022-10-27T15:43:03.346Z,1.50
2022-10-27T15:45:41.392Z,1.60
2022-10-27T15:48:36.739Z,1.67
2022-10-27T15:51:10.129Z,1.77
2022-10-27T15:53:48.290Z,1.98
2022-10-27T15:56:38.880Z,1.95
2022-10-27T15:59:19.047Z,1.70
2022-10-27T16:01:49.459Z,1.85
2022-10-27T16:04:30.692Z,1.73
2022-10-27T16:07:32.887Z,2.28
2022-10-27T16:10:02.336Z,1.63
2022-10-27T16:12:41.693Z,1.70
2022-10-27T16:15:20.656Z,2.20
2022-10-27T16:17:54.616Z,1.98
2022-10-27T16:20:25.288Z,1.85
2022-10-27T16:22:53.518Z,2.10
2022-10-27T16:25:28.959Z,2.10
2022-10-27T16:27:57.349Z,2.30
2022-10-27T16:30:25.269Z,1.95
2022-10-27T16:33:01.659Z,2.28
2022-10-27T16:35:30.134Z,2.28
2022-10-27T16:37:58.853Z,2.50
2022-10-27T16:40:28.224Z,2.58
2022-10-27T16:42:57.634Z,2.30
2022-10-27T16:45:26.192Z,2.55
2022-10-27T16:47:54.594Z,2.70
2022-10-27T16:50:23.400Z,2.30
2022-10-27T16:52:53.392Z,2.65
2022-10-27T16:55:21.729Z,2.67
2022-10-27T16:57:51.438Z,2.97
2022-10-27T17:00:19.921Z,2.90
2022-10-27T17:02:50.625Z,3.20
2022-10-27T17:05:18.644Z,2.95
2022-10-27T17:07:48.041Z,3.50
2022-10-27T17:10:16.965Z,2.55
2022-10-27T17:12:45.084Z,2.80
2022-10-27T17:15:14.460Z,2.70
2022-10-27T17:17:42.372Z,2.78
2022-10-27T17:20:11.553Z,3.00
2022-10-27T17:22:39.424Z,2.60
2022-10-27T17:25:07.962Z,3.20
2022-10-27T17:27:35.829Z,2.67
2022-10-27T17:30:05.010Z,2.95
2022-10-27T17:32:34.214Z,3.28
2022-10-27T17:35:02.098Z,2.72
2022-10-27T17:37:30.000Z,3.05
2022-10-27T17:39:58.585Z,2.75
2022-10-27T17:42:26.674Z,2.80
2022-10-27T17:44:55.631Z,3.10
2022-10-27T17:47:24.068Z,3.13
2022-10-27T17:49:53.293Z,3.00
2022-10-27T17:52:21.218Z,2.97
2022-10-27T17:54:49.156Z,3.13
2022-10-27T17:57:18.474Z,2.92
2022-10-27T17:59:46.459Z,2.83
2022-10-27T18:04:47.669Z,2.97
2022-10-27T18:07:17.337Z,2.90
2022-10-27T18:09:45.605Z,2.75
2022-10-27T18:12:13.464Z,2.53
2022-10-27T18:14:41.376Z,3.00
2022-10-27T18:17:10.382Z,2.78
2022-10-27T18:19:40.631Z,3.38
2022-10-27T18:22:08.563Z,3.70
2022-10-27T18:24:37.839Z,3.80
2022-10-27T18:27:05.719Z,3.28
2022-10-27T18:29:35.576Z,3.50
2022-10-27T18:32:03.416Z,3.47
2022-10-27T18:34:31.311Z,3.35
2022-10-27T18:36:59.743Z,3.63
2022-10-27T18:39:27.670Z,3.67
2022-10-27T18:41:56.918Z,3.83
2022-10-27T18:44:24.887Z,3.65
2022-10-27T18:46:52.844Z,3.58
2022-10-27T18:49:25.791Z,4.22
2022-10-27T18:52:05.455Z,3.92
2022-10-27T18:54:33.318Z,3.78
2022-10-27T18:57:02.564Z,3.75
2022-10-27T18:59:30.489Z,3.78
2022-10-27T19:01:58.541Z,3.70
2022-10-27T19:04:26.565Z,4.20
2022-10-27T19:06:54.485Z,4.28
2022-10-27T19:09:22.398Z,4.65
2022-10-27T19:11:50.318Z,3.97
2022-10-27T19:14:19.670Z,4.65
2022-10-27T19:16:51.712Z,4.55
2022-10-27T19:19:24.708Z,4.03
2022-10-27T19:21:52.648Z,4.50
2022-10-27T19:24:20.619Z,4.10
2022-10-27T19:26:48.669Z,4.07
2022-10-27T19:29:16.689Z,4.80
2022-10-27T19:31:46.174Z,4.40
2022-10-27T19:34:14.542Z,4.80
2022-10-27T19:36:42.603Z,4.70
2022-10-27T19:39:12.800Z,4.68
2022-10-27T19:41:41.178Z,4.75
2022-10-27T19:44:09.171Z,4.53
2022-10-27T19:46:37.199Z,4.65
2022-10-27T19:49:08.967Z,5.25
2022-10-27T19:51:39.791Z,5.07
2022-10-27T19:54:12.414Z,4.60
2022-10-27T19:56:47.629Z,6.05
2022-10-27T19:59:17.539Z,5.90
2022-10-27T20:01:48.814Z,5.80
2022-10-27T20:04:22.179Z,5.22
2022-10-27T20:06:50.545Z,5.40
2022-10-27T20:09:21.217Z,5.45
2022-10-27T20:11:50.085Z,5.63
2022-10-27T20:14:18.732Z,4.97
2022-10-27T20:16:48.372Z,5.95
2022-10-27T20:19:18.620Z,5.82
2022-10-27T20:21:48.938Z,6.72
2022-10-27T20:24:17.681Z,5.97
2022-10-27T20:26:47.947Z,6.03
2022-10-27T20:29:19.408Z,7.88
2022-10-27T20:31:49.851Z,6.18
2022-10-27T20:34:17.972Z,6.15
2022-10-27T20:36:47.644Z,6.15
2022-10-27T20:39:15.920Z,5.40
2022-10-27T20:41:44.122Z,5.70
2022-10-27T20:44:12.195Z,6.25
2022-10-27T20:46:40.268Z,6.40
2022-10-27T20:49:08.823Z,6.05
2022-10-27T20:51:36.776Z,6.10
2022-10-27T20:54:06.243Z,5.38
2022-10-27T20:56:37.018Z,5.55
2022-10-27T20:59:06.802Z,5.40
2022-10-27T21:01:37.226Z,7.05
2022-10-27T21:04:08.489Z,6.82
2022-10-27T21:06:40.572Z,6.50
2022-10-27T21:09:12.499Z,6.28
2022-10-27T21:11:40.613Z,6.13
2022-10-27T21:14:09.959Z,6.20
2022-10-27T21:16:38.921Z,5.95
2022-10-27T21:19:09.592Z,6.07
2022-10-27T21:21:39.081Z,6.50
2022-10-27T21:24:10.995Z,5.40
2022-10-27T21:26:42.435Z,6.32
2022-10-27T21:29:11.437Z,6.82
2022-10-27T21:31:40.695Z,6.38
2022-10-27T21:34:08.893Z,6.35
2022-10-27T21:36:36.922Z,5.90
2022-10-27T21:39:09.519Z,6.35
2022-10-27T21:41:38.413Z,5.65
2022-10-27T21:44:06.592Z,5.70
2022-10-27T21:46:34.596Z,6.10
2022-10-27T21:49:03.095Z,6.40
2022-10-27T21:51:31.922Z,5.63
2022-10-27T21:54:02.123Z,6.25
2022-10-27T21:56:33.597Z,6.28
2022-10-27T21:59:02.298Z,6.60
2022-10-27T22:01:31.103Z,5.90
2022-10-27T22:03:59.477Z,5.53
2022-10-27T22:06:30.335Z,6.28
2022-10-27T22:08:59.772Z,5.75
2022-10-27T22:11:33.165Z,5.97
2022-10-27T22:14:01.578Z,5.95
2022-10-27T22:16:31.641Z,5.85
2022-10-27T22:19:02.689Z,6.13
2022-10-27T22:21:34.373Z,5.93
2022-10-27T22:24:03.253Z,5.60
2022-10-27T22:26:35.438Z,5.53
2022-10-27T22:29:03.414Z,5.70
2022-10-27T22:31:32.506Z,5.90
2022-10-27T22:34:03.894Z,5.80
2022-10-27T22:36:33.926Z,6.20
2022-10-27T22:39:04.638Z,5.45
2022-10-27T22:41:36.357Z,5.45
2022-10-27T22:44:05.273Z,5.50
2022-10-27T22:46:34.937Z,5.03
2022-10-27T22:49:04.234Z,5.10
2022-10-27T22:51:32.435Z,5.05
2022-10-27T22:54:00.420Z,4.70
2022-10-27T22:56:31.266Z,4.20
2022-10-27T22:59:03.676Z,4.63
2022-10-27T23:01:34.902Z,5.03
2022-10-27T23:04:05.547Z,5.25
2022-10-27T23:06:37.532Z,5.05
2022-10-27T23:09:08.227Z,4.97
2022-10-27T23:11:37.501Z,5.20
2022-10-27T23:14:08.073Z,4.93
2022-10-27T23:16:36.174Z,4.65
2022-10-27T23:19:05.678Z,4.68
2022-10-27T23:21:35.949Z,4.75
2022-10-27T23:24:05.494Z,5.10
2022-10-27T23:26:36.285Z,5.43
2022-10-27T23:29:11.511Z,4.97
2022-10-27T23:31:40.389Z,5.18
2022-10-27T23:34:08.947Z,4.85
2022-10-27T23:36:39.211Z,5.05
2022-10-27T23:39:07.434Z,5.03
2022-10-27T23:41:35.398Z,4.75
2022-10-27T23:44:03.690Z,5.35
2022-10-27T23:46:33.076Z,5.10
2022-10-27T23:49:01.332Z,4.57
2022-10-27T23:51:29.848Z,4.90
2022-10-27T23:53:57.890Z,5.03
2022-10-27T23:56:26.793Z,4.75
2022-10-27T23:58:54.873Z,4.70
